Terminal Aerodrome Forecast
Issued by NWS

Home | Current Version | Previous Version | Text Only | Print | Product List | Glossary Off
Versions: 1 2 3 4 5 6 7 8 9 10 11 12 13 14 15 16 17 18 19

000
FTUS43 KICT 281101 AAB
TAFHUT
TAF AMD
KHUT 281101Z 2811/2906 34006KT P6SM VCTS BKN050CB
     FM281300 07006KT P6SM SCT100 BKN250
     FM281700 13007KT P6SM SCT050
      TEMPO 2900/2904 5SM TSRA BKN035CB
     FM290500 09009KT P6SM VCSH SCT050 BKN100=

USA.gov is the U.S. government's official web portal to all federal, state and local government web resources and services.